createdAt,value
2018-01-18T00:00:18.206Z,33.1
2018-01-18T00:01:19.849Z,31.1
2018-01-18T00:02:21.495Z,27.1
2018-01-18T00:03:23.144Z,32.5
2018-01-18T00:04:24.839Z,32.3
2018-01-18T00:05:26.480Z,33.3
2018-01-18T00:06:28.147Z,27.9
2018-01-18T00:07:29.788Z,29.3
2018-01-18T00:08:31.441Z,28.9
2018-01-18T00:09:33.079Z,30.5
2018-01-18T00:10:34.728Z,31.8
2018-01-18T00:11:36.372Z,31.4
2018-01-18T00:12:38.022Z,33.8
2018-01-18T00:13:39.677Z,30.9
2018-01-18T00:14:41.305Z,35.3
2018-01-18T00:15:42.948Z,28.8
2018-01-18T00:16:44.605Z,26.7
2018-01-18T00:17:46.254Z,34.2
2018-01-18T00:18:47.994Z,29.8
2018-01-18T00:19:49.648Z,38.7
2018-01-18T00:20:51.297Z,29.0
2018-01-18T00:21:52.941Z,29.6
2018-01-18T00:22:54.578Z,29.0
2018-01-18T00:23:56.233Z,21.4
2018-01-18T00:24:57.876Z,22.9
2018-01-18T00:25:59.518Z,35.8
2018-01-18T00:27:01.173Z,31.6
2018-01-18T00:28:02.818Z,27.6
2018-01-18T00:29:04.467Z,29.1
2018-01-18T00:30:06.117Z,22.4
2018-01-18T00:31:07.756Z,29.8
2018-01-18T00:32:09.401Z,26.0
2018-01-18T00:33:11.047Z,26.1
2018-01-18T00:34:12.692Z,25.9
2018-01-18T00:35:14.344Z,19.5
2018-01-18T00:36:16.036Z,24.2
2018-01-18T00:37:17.636Z,29.2
2018-01-18T00:38:19.293Z,28.2
2018-01-18T00:39:20.930Z,27.4
2018-01-18T00:40:22.571Z,25.2
2018-01-18T00:41:24.220Z,30.6
2018-01-18T00:42:25.859Z,30.6
2018-01-18T00:43:27.499Z,27.8
2018-01-18T00:44:29.150Z,25.7
2018-01-18T00:45:30.793Z,28.8
2018-01-18T00:46:32.450Z,24.8
2018-01-18T00:47:34.102Z,30.6
2018-01-18T00:48:35.746Z,27.8
2018-01-18T00:49:37.403Z,26.1
2018-01-18T00:50:39.048Z,30.5
2018-01-18T00:51:40.688Z,26.8
2018-01-18T00:52:42.333Z,27.2
2018-01-18T00:53:43.981Z,29.5
2018-01-18T00:54:45.631Z,29.8
2018-01-18T00:55:47.269Z,28.3
2018-01-18T00:56:48.918Z,30.4
2018-01-18T00:57:50.559Z,30.4
2018-01-18T00:58:52.210Z,23.0
2018-01-18T00:59:53.854Z,27.6
2018-01-18T01:00:55.499Z,23.4
2018-01-18T01:01:57.145Z,21.6
2018-01-18T01:02:58.809Z,28.9
2018-01-18T01:04:00.454Z,31.4
2018-01-18T01:05:02.100Z,27.9
2018-01-18T01:06:03.754Z,27.1
2018-01-18T01:07:05.397Z,22.5
2018-01-18T01:08:07.044Z,28.7
2018-01-18T01:09:08.689Z,22.7
2018-01-18T01:10:10.346Z,23.3
2018-01-18T01:11:11.992Z,25.1
2018-01-18T01:12:13.638Z,27.8
2018-01-18T01:13:15.283Z,28.2
2018-01-18T01:14:16.921Z,23.8
2018-01-18T01:15:18.562Z,22.8
2018-01-18T01:16:20.208Z,20.2
2018-01-18T01:17:21.860Z,25.0
2018-01-18T01:18:23.503Z,26.8
2018-01-18T01:19:25.147Z,24.4
2018-01-18T01:20:26.797Z,24.2
2018-01-18T01:21:28.462Z,32.3
2018-01-18T01:22:30.111Z,29.8
2018-01-18T01:23:31.752Z,23.2
2018-01-18T01:24:33.404Z,28.1
2018-01-18T01:25:35.051Z,22.6
2018-01-18T01:26:36.686Z,26.2
2018-01-18T01:27:38.338Z,31.1
2018-01-18T01:28:39.995Z,29.5
2018-01-18T01:29:41.631Z,24.0
2018-01-18T01:30:43.283Z,27.4
2018-01-18T01:31:44.934Z,25.7
2018-01-18T01:32:46.576Z,24.8
2018-01-18T01:33:48.220Z,19.1
2018-01-18T01:34:49.856Z,30.1
2018-01-18T01:35:51.501Z,32.6
2018-01-18T01:36:53.153Z,22.3
2018-01-18T01:37:54.797Z,29.0
2018-01-18T01:38:56.454Z,24.2
2018-01-18T01:39:58.106Z,25.8
2018-01-18T01:40:59.749Z,27.1
2018-01-18T01:42:01.394Z,22.4
2018-01-18T01:43:03.039Z,24.2
2018-01-18T01:44:04.687Z,24.4
2018-01-18T01:45:06.344Z,29.7
2018-01-18T01:46:07.987Z,27.6
2018-01-18T01:47:09.686Z,23.2
2018-01-18T01:48:11.337Z,18.9
2018-01-18T01:49:12.984Z,23.1
2018-01-18T01:50:14.634Z,20.2
2018-01-18T01:51:16.282Z,25.4
2018-01-18T01:52:17.938Z,26.6
2018-01-18T01:53:19.585Z,22.8
2018-01-18T01:54:21.228Z,29.6
2018-01-18T01:55:22.874Z,23.4
2018-01-18T01:56:24.521Z,21.7
2018-01-18T01:57:26.168Z,26.3
2018-01-18T01:58:27.809Z,19.2
2018-01-18T01:59:29.460Z,26.6
2018-01-18T02:00:31.108Z,26.7
2018-01-18T02:01:32.766Z,27.5
2018-01-18T02:02:34.404Z,31.0
2018-01-18T02:03:36.036Z,23.1
2018-01-18T02:04:37.682Z,30.6
2018-01-18T02:05:39.327Z,23.1
2018-01-18T02:06:40.975Z,25.6
2018-01-18T02:07:42.623Z,24.3
2018-01-18T02:08:44.262Z,25.1
2018-01-18T02:09:45.908Z,21.8
2018-01-18T02:10:47.553Z,21.6
2018-01-18T02:11:49.203Z,24.0
2018-01-18T02:12:50.852Z,21.5
2018-01-18T02:13:52.503Z,19.1
2018-01-18T02:14:54.150Z,22.2
2018-01-18T02:15:55.813Z,26.3
2018-01-18T02:16:57.470Z,28.1
2018-01-18T02:17:59.120Z,20.8
2018-01-18T02:19:00.767Z,18.1
2018-01-18T02:20:02.413Z,24.1
2018-01-18T02:21:04.070Z,23.6
2018-01-18T02:22:05.719Z,20.4
2018-01-18T02:23:07.362Z,20.0
2018-01-18T02:24:09.008Z,22.6
2018-01-18T02:25:10.663Z,27.0
2018-01-18T02:26:12.300Z,25.7
2018-01-18T02:27:13.958Z,26.1
2018-01-18T02:28:15.613Z,26.0
2018-01-18T02:29:17.278Z,24.8
2018-01-18T02:30:18.933Z,20.5
2018-01-18T02:31:20.578Z,24.9
2018-01-18T02:32:22.219Z,26.6
2018-01-18T02:33:23.864Z,18.3
2018-01-18T02:34:25.509Z,21.9
2018-01-18T02:35:27.154Z,21.3
2018-01-18T02:36:28.803Z,23.4
2018-01-18T02:37:30.447Z,23.0
2018-01-18T02:38:32.093Z,25.5
2018-01-18T02:39:33.730Z,25.4
2018-01-18T02:40:35.398Z,23.9
2018-01-18T02:41:37.044Z,27.7
2018-01-18T02:42:38.701Z,24.5
2018-01-18T02:43:40.343Z,21.9
2018-01-18T02:44:42.014Z,18.9
2018-01-18T02:45:43.655Z,16.9
2018-01-18T02:46:45.316Z,18.7
2018-01-18T02:47:46.953Z,24.0
2018-01-18T02:48:48.601Z,17.3
2018-01-18T02:49:50.259Z,21.5
2018-01-18T02:50:51.902Z,25.7
2018-01-18T02:51:53.551Z,21.7
2018-01-18T02:52:55.192Z,32.5
2018-01-18T02:53:56.840Z,21.6
2018-01-18T02:54:58.482Z,21.9
2018-01-18T03:01:18.823Z,14.1
2018-01-18T03:02:20.457Z,21.7
2018-01-18T03:03:22.104Z,26.8
2018-01-18T03:04:23.745Z,23.1
2018-01-18T03:05:25.422Z,24.2
2018-01-18T03:06:27.078Z,22.9
2018-01-18T03:07:28.722Z,16.3
2018-01-18T03:08:30.369Z,18.6
2018-01-18T03:09:31.998Z,18.7
2018-01-18T03:10:33.645Z,24.9
2018-01-18T03:11:35.289Z,18.3
2018-01-18T03:12:36.940Z,16.0
2018-01-18T03:13:38.578Z,15.0
2018-01-18T03:14:40.219Z,13.7
2018-01-18T03:15:41.868Z,17.4
2018-01-18T03:16:43.554Z,15.1
2018-01-18T03:17:45.194Z,16.4
2018-01-18T03:18:46.840Z,14.0
2018-01-18T03:19:48.485Z,14.7
2018-01-18T03:20:50.126Z,12.2
2018-01-18T03:21:51.779Z,14.8
2018-01-18T03:22:53.421Z,11.1
2018-01-18T03:23:55.071Z,9.9
2018-01-18T03:24:56.720Z,9.6
2018-01-18T03:25:58.360Z,12.3
2018-01-18T03:27:00.030Z,11.7
2018-01-18T03:28:01.669Z,12.2
2018-01-18T03:29:03.313Z,11.0
2018-01-18T03:30:04.958Z,11.3
2018-01-18T03:31:06.602Z,7.1
2018-01-18T03:32:08.243Z,8.3
2018-01-18T03:33:09.888Z,13.5
2018-01-18T03:34:11.536Z,13.5
2018-01-18T03:35:13.183Z,11.1
2018-01-18T03:36:14.826Z,10.9
2018-01-18T03:37:16.477Z,12.2
2018-01-18T03:38:18.117Z,9.0
2018-01-18T03:39:19.763Z,6.9
2018-01-18T03:40:21.397Z,7.3
2018-01-18T03:41:23.043Z,8.1
2018-01-18T03:42:24.686Z,9.7
2018-01-18T03:43:26.327Z,8.5
2018-01-18T03:44:27.984Z,9.8
2018-01-18T03:45:29.618Z,7.5
2018-01-18T03:46:31.255Z,13.2
2018-01-18T03:47:32.891Z,8.9
2018-01-18T03:48:34.546Z,7.8
2018-01-18T03:49:36.192Z,10.9
2018-01-18T03:50:37.840Z,13.7
2018-01-18T03:51:39.502Z,10.1
2018-01-18T03:52:41.149Z,10.3
2018-01-18T03:53:42.788Z,11.5
2018-01-18T03:54:44.443Z,7.6
2018-01-18T03:55:46.090Z,8.8
2018-01-18T03:56:47.727Z,7.5
2018-01-18T03:57:49.381Z,7.6
2018-01-18T03:58:51.029Z,6.6
2018-01-18T03:59:52.686Z,6.7
2018-01-18T04:00:54.335Z,10.2
2018-01-18T04:01:55.974Z,9.6
2018-01-18T04:02:57.626Z,8.0
2018-01-18T04:03:59.272Z,10.2
2018-01-18T04:05:00.920Z,9.3
2018-01-18T04:06:02.595Z,10.1
2018-01-18T04:07:04.243Z,7.7
2018-01-18T04:08:05.891Z,7.9
2018-01-18T04:09:07.540Z,6.1
2018-01-18T04:10:09.187Z,7.7
2018-01-18T04:11:10.826Z,8.7
2018-01-18T04:12:12.476Z,9.3
2018-01-18T04:13:14.118Z,9.1
2018-01-18T04:14:15.777Z,8.0
2018-01-18T04:15:17.423Z,6.4
2018-01-18T04:16:19.067Z,6.0
2018-01-18T04:17:20.709Z,5.9
2018-01-18T04:18:22.355Z,4.4
2018-01-18T04:19:24.000Z,4.6
2018-01-18T04:20:25.637Z,4.1
2018-01-18T04:21:27.362Z,5.2
2018-01-18T04:22:29.015Z,5.9
2018-01-18T04:23:30.657Z,4.2
2018-01-18T04:24:32.307Z,4.5
2018-01-18T04:25:33.949Z,3.3
2018-01-18T04:26:35.596Z,4.9
2018-01-18T04:27:37.246Z,3.4
2018-01-18T04:28:38.904Z,4.0
2018-01-18T04:29:40.546Z,3.6
2018-01-18T04:30:42.195Z,5.6
2018-01-18T04:31:43.840Z,3.6
2018-01-18T04:32:45.486Z,4.1
2018-01-18T04:33:47.132Z,4.1
2018-01-18T04:34:48.775Z,4.6
2018-01-18T04:35:50.422Z,4.9
2018-01-18T04:36:52.071Z,4.0
2018-01-18T04:37:53.711Z,9.3
2018-01-18T04:38:55.358Z,4.5
2018-01-18T04:39:57.057Z,8.8
2018-01-18T04:40:58.695Z,3.9
2018-01-18T04:42:00.343Z,4.7
2018-01-18T04:43:01.984Z,4.4
2018-01-18T04:44:03.627Z,2.7
2018-01-18T04:45:05.276Z,4.8
2018-01-18T04:46:06.917Z,2.8
2018-01-18T04:47:08.559Z,3.9
2018-01-18T04:48:10.209Z,3.0
2018-01-18T04:49:11.851Z,2.1
2018-01-18T04:50:13.497Z,1.5
2018-01-18T04:51:15.136Z,2.0
2018-01-18T04:52:16.779Z,3.2
2018-01-18T04:53:18.425Z,3.7
2018-01-18T04:54:20.071Z,2.5
2018-01-18T04:55:21.718Z,3.9
2018-01-18T04:56:23.358Z,2.0
2018-01-18T04:57:25.000Z,3.4
2018-01-18T04:58:26.656Z,3.9
2018-01-18T04:59:28.298Z,2.6
2018-01-18T05:00:29.962Z,3.3
2018-01-18T05:01:32.548Z,5.0
2018-01-18T05:02:34.138Z,3.3
2018-01-18T05:03:35.786Z,1.9
2018-01-18T05:04:37.433Z,2.1
2018-01-18T05:05:39.073Z,3.7
2018-01-18T05:06:40.707Z,3.1
2018-01-18T05:07:42.348Z,4.3
2018-01-18T05:08:43.987Z,4.8
2018-01-18T05:09:45.644Z,1.6
2018-01-18T05:10:47.291Z,3.6
2018-01-18T05:11:48.943Z,2.6
2018-01-18T05:12:50.802Z,4.0
2018-01-18T05:13:52.441Z,2.8
2018-01-18T05:14:54.265Z,1.8
2018-01-18T05:15:55.905Z,1.7
2018-01-18T05:16:57.552Z,3.3
2018-01-18T05:17:59.201Z,2.0
2018-01-18T05:19:00.846Z,2.9
2018-01-18T05:20:02.596Z,1.7
2018-01-18T05:21:04.249Z,1.2
2018-01-18T05:22:05.959Z,1.8
2018-01-18T05:23:07.660Z,2.6
2018-01-18T05:24:09.371Z,4.7
2018-01-18T05:25:11.343Z,3.3
2018-01-18T05:26:13.268Z,2.9
2018-01-18T05:27:15.132Z,2.7
2018-01-18T05:28:16.853Z,2.5
2018-01-18T05:29:18.654Z,2.6
2018-01-18T05:30:20.599Z,2.0
2018-01-18T05:31:22.374Z,1.8
2018-01-18T05:32:24.173Z,2.2
2018-01-18T05:33:25.960Z,2.6
2018-01-18T05:34:27.704Z,1.3
2018-01-18T05:35:29.576Z,1.1
2018-01-18T05:36:31.303Z,3.1
2018-01-18T05:37:33.031Z,1.5
2018-01-18T05:38:34.792Z,1.3
2018-01-18T05:39:36.567Z,1.4
2018-01-18T05:40:38.312Z,2.0
2018-01-18T05:41:40.182Z,6.0
2018-01-18T05:42:41.933Z,2.3
2018-01-18T05:43:43.628Z,1.2
2018-01-18T05:44:45.417Z,1.3
2018-01-18T05:45:47.175Z,1.4
2018-01-18T05:46:49.001Z,2.1
2018-01-18T05:47:50.615Z,3.8
2018-01-18T05:48:52.273Z,2.3
2018-01-18T05:49:53.913Z,1.9
2018-01-18T05:50:55.544Z,2.4
2018-01-18T05:51:57.192Z,4.2
2018-01-18T05:52:58.846Z,2.6
2018-01-18T05:54:05.223Z,1.5
2018-01-18T05:55:06.985Z,1.5
2018-01-18T05:56:08.630Z,1.2
2018-01-18T05:57:10.276Z,0.9
2018-01-18T05:58:11.929Z,1.2
2018-01-18T05:59:13.591Z,1.9
2018-01-18T06:00:15.242Z,1.6
2018-01-18T06:01:16.908Z,1.8
2018-01-18T06:02:18.546Z,1.3
2018-01-18T06:03:20.219Z,1.6
2018-01-18T06:04:21.884Z,2.9
2018-01-18T06:05:23.597Z,6.4
2018-01-18T06:06:25.236Z,8.0
2018-01-18T06:07:26.892Z,8.9
2018-01-18T06:08:28.551Z,4.1
2018-01-18T06:09:30.203Z,8.6
2018-01-18T06:10:31.854Z,7.8
2018-01-18T06:11:33.487Z,4.4
2018-01-18T06:12:35.148Z,3.2
2018-01-18T06:13:36.848Z,3.3
2018-01-18T06:14:38.472Z,4.2
2018-01-18T06:15:40.125Z,2.1
2018-01-18T06:16:41.768Z,3.6
2018-01-18T06:17:43.872Z,2.8
2018-01-18T06:18:45.513Z,1.6
2018-01-18T06:19:47.167Z,4.7
2018-01-18T06:20:48.805Z,7.3
2018-01-18T06:21:50.520Z,4.2
2018-01-18T06:22:52.177Z,6.7
2018-01-18T06:23:53.828Z,9.1
2018-01-18T06:24:55.529Z,16.5
2018-01-18T06:25:57.351Z,21.5
2018-01-18T06:26:59.013Z,15.9
2018-01-18T06:28:00.692Z,19.7
2018-01-18T06:29:02.873Z,10.7
2018-01-18T06:30:04.521Z,11.8
2018-01-18T06:31:06.173Z,18.9
2018-01-18T06:32:07.822Z,29.1
2018-01-18T06:33:09.461Z,23.3
2018-01-18T06:34:11.143Z,21.2
2018-01-18T06:35:12.825Z,16.8
2018-01-18T06:36:14.435Z,14.5
2018-01-18T06:37:16.177Z,9.3
2018-01-18T06:38:17.803Z,13.0
2018-01-18T06:39:19.525Z,16.5
2018-01-18T06:40:21.177Z,16.7
2018-01-18T06:41:22.833Z,13.0
2018-01-18T06:42:24.485Z,16.0
2018-01-18T06:43:26.136Z,6.0
2018-01-18T06:44:27.777Z,5.8
2018-01-18T06:45:29.454Z,10.8
2018-01-18T06:46:31.101Z,7.4
2018-01-18T06:47:33.673Z,12.4
2018-01-18T06:48:35.326Z,17.5
2018-01-18T06:49:36.994Z,15.2
2018-01-18T06:50:38.652Z,12.3
2018-01-18T06:51:40.301Z,5.4
2018-01-18T06:52:41.952Z,5.9
2018-01-18T06:53:43.589Z,4.2
2018-01-18T06:54:45.238Z,7.1
2018-01-18T07:00:53.608Z,1.9
2018-01-18T07:01:55.246Z,6.9
2018-01-18T07:02:56.887Z,3.7
2018-01-18T07:03:58.534Z,3.1
2018-01-18T07:05:00.205Z,1.6
2018-01-18T07:06:01.885Z,2.2
2018-01-18T07:07:03.517Z,3.6
2018-01-18T07:08:05.165Z,4.1
2018-01-18T07:09:06.805Z,4.7
2018-01-18T07:10:09.350Z,3.3
2018-01-18T07:11:11.000Z,2.6
2018-01-18T07:12:12.639Z,3.5
2018-01-18T07:13:14.298Z,3.9
2018-01-18T07:14:15.955Z,2.4
2018-01-18T07:15:17.599Z,1.7
2018-01-18T07:16:19.237Z,2.1
2018-01-18T07:17:20.965Z,3.2
2018-01-18T07:18:22.608Z,2.7
2018-01-18T07:19:24.247Z,2.6
2018-01-18T07:20:25.906Z,2.3
2018-01-18T07:21:27.579Z,1.4
2018-01-18T07:22:29.483Z,1.9
2018-01-18T07:23:31.384Z,5.8
2018-01-18T07:24:33.300Z,3.4
2018-01-18T07:25:35.227Z,4.4
2018-01-18T07:26:37.098Z,5.4
2018-01-18T07:27:39.018Z,1.6
2018-01-18T07:28:40.921Z,1.6
2018-01-18T07:29:42.769Z,3.6
2018-01-18T07:30:44.623Z,1.3
2018-01-18T07:31:46.551Z,2.0
2018-01-18T07:32:48.370Z,1.6
2018-01-18T07:33:50.336Z,2.9
2018-01-18T07:34:52.135Z,1.5
2018-01-18T07:35:53.987Z,1.1
2018-01-18T07:36:55.812Z,2.3
2018-01-18T07:37:57.685Z,3.4
2018-01-18T07:38:59.553Z,2.9
2018-01-18T07:40:01.415Z,2.8
2018-01-18T07:41:03.334Z,1.3
2018-01-18T07:42:05.220Z,1.3
2018-01-18T07:43:07.100Z,4.0
2018-01-18T07:44:09.001Z,2.4
2018-01-18T07:45:10.805Z,2.4
2018-01-18T07:46:12.689Z,1.5
2018-01-18T07:47:14.515Z,1.9
2018-01-18T07:48:16.301Z,3.8
2018-01-18T07:49:18.149Z,3.2
2018-01-18T07:50:19.906Z,1.9
2018-01-18T07:51:21.736Z,1.3
2018-01-18T07:52:23.535Z,1.7
2018-01-18T07:53:25.388Z,2.2
2018-01-18T07:54:27.200Z,2.9
2018-01-18T07:55:28.916Z,2.4
2018-01-18T07:56:30.720Z,2.7
2018-01-18T07:57:32.490Z,3.5
2018-01-18T07:58:34.211Z,2.8
2018-01-18T07:59:35.954Z,2.6
2018-01-18T08:00:37.665Z,2.1
2018-01-18T08:01:39.387Z,2.5
2018-01-18T08:02:41.098Z,1.6
2018-01-18T08:03:42.862Z,1.7
2018-01-18T08:04:44.648Z,2.5
2018-01-18T08:05:46.428Z,1.9
2018-01-18T08:06:48.137Z,1.7
2018-01-18T08:07:49.851Z,1.8
2018-01-18T08:08:51.536Z,2.8
2018-01-18T08:09:53.239Z,3.0
2018-01-18T08:10:54.931Z,1.4
2018-01-18T08:11:56.632Z,1.9
2018-01-18T08:12:58.324Z,1.3
2018-01-18T08:13:59.992Z,3.5
2018-01-18T08:15:01.672Z,4.0
2018-01-18T08:16:03.350Z,2.7
2018-01-18T08:17:05.025Z,2.6
2018-01-18T08:18:06.718Z,2.7
2018-01-18T08:19:08.395Z,4.7
2018-01-18T08:20:10.081Z,1.6
2018-01-18T08:21:11.791Z,2.5
2018-01-18T08:22:13.441Z,4.1
2018-01-18T08:23:15.102Z,2.3
2018-01-18T08:24:16.744Z,1.5
2018-01-18T08:25:18.393Z,2.2
2018-01-18T08:26:20.066Z,3.3
2018-01-18T08:27:21.735Z,3.1
2018-01-18T08:28:23.377Z,3.3
2018-01-18T08:29:25.038Z,3.0
2018-01-18T08:30:26.680Z,2.4
2018-01-18T08:31:28.344Z,1.4
2018-01-18T08:32:29.994Z,1.6
2018-01-18T08:33:31.650Z,1.5
2018-01-18T08:34:33.310Z,2.4
2018-01-18T08:35:34.956Z,1.5
2018-01-18T08:36:36.601Z,2.7
2018-01-18T08:37:38.256Z,2.4
2018-01-18T08:38:39.898Z,2.4
2018-01-18T08:39:41.550Z,2.0
2018-01-18T08:40:43.201Z,2.3
2018-01-18T08:41:44.856Z,5.2
2018-01-18T08:42:46.541Z,1.7
2018-01-18T08:43:48.145Z,1.8
2018-01-18T08:44:49.813Z,4.7
2018-01-18T08:45:51.456Z,3.5
2018-01-18T08:46:53.128Z,5.6
2018-01-18T08:47:54.779Z,3.1
2018-01-18T08:48:56.451Z,2.9
2018-01-18T08:49:58.094Z,1.4
2018-01-18T08:50:59.743Z,2.7
2018-01-18T08:52:01.401Z,2.5
2018-01-18T08:53:03.053Z,2.0
2018-01-18T08:54:04.750Z,1.2
2018-01-18T08:55:06.409Z,2.0
2018-01-18T08:56:08.065Z,2.2
2018-01-18T08:57:09.720Z,1.4
2018-01-18T08:58:11.367Z,2.0
2018-01-18T08:59:13.026Z,1.6
2018-01-18T09:00:14.689Z,1.0
2018-01-18T09:01:16.343Z,1.6
2018-01-18T09:02:18.001Z,2.1
2018-01-18T09:03:19.667Z,2.0
2018-01-18T09:04:21.311Z,1.6
2018-01-18T09:05:22.965Z,1.5
2018-01-18T09:06:24.616Z,2.6
2018-01-18T09:07:26.268Z,1.6
2018-01-18T09:08:27.921Z,2.5
2018-01-18T09:09:29.577Z,1.9
2018-01-18T09:10:31.234Z,2.6
2018-01-18T09:11:32.890Z,2.2
2018-01-18T09:12:34.544Z,2.3
2018-01-18T09:13:36.286Z,2.3
2018-01-18T09:14:37.916Z,1.6
2018-01-18T09:15:39.603Z,2.2
2018-01-18T09:16:41.276Z,3.0
2018-01-18T09:17:42.983Z,2.3
2018-01-18T09:18:44.618Z,3.8
2018-01-18T09:19:46.467Z,2.1
2018-01-18T09:20:48.137Z,2.8
2018-01-18T09:21:49.831Z,3.5
2018-01-18T09:22:51.824Z,2.6
2018-01-18T09:23:53.489Z,5.0
2018-01-18T09:24:55.244Z,3.6
2018-01-18T09:25:57.285Z,4.0
2018-01-18T09:26:59.094Z,3.7
2018-01-18T09:28:00.890Z,3.4
2018-01-18T09:29:02.579Z,3.5
2018-01-18T09:30:04.318Z,4.5
2018-01-18T09:31:06.116Z,2.6
2018-01-18T09:32:07.909Z,3.0
2018-01-18T09:33:09.819Z,3.9
2018-01-18T09:34:11.708Z,3.5
2018-01-18T09:35:13.725Z,4.6
2018-01-18T09:36:15.684Z,3.6
2018-01-18T09:37:17.751Z,4.9
2018-01-18T09:38:19.696Z,4.0
2018-01-18T09:39:21.504Z,5.1
2018-01-18T09:40:23.267Z,4.8
2018-01-18T09:41:25.073Z,6.3
2018-01-18T09:42:26.879Z,7.4
2018-01-18T09:43:28.635Z,4.6
2018-01-18T09:44:30.513Z,1.8
2018-01-18T09:45:32.298Z,2.8
2018-01-18T09:46:34.077Z,5.3
2018-01-18T09:47:35.893Z,4.1
2018-01-18T09:48:37.664Z,3.8
2018-01-18T09:49:39.432Z,6.5
2018-01-18T09:50:41.193Z,6.1
2018-01-18T09:51:42.940Z,3.2
2018-01-18T09:52:44.678Z,5.6
2018-01-18T09:53:46.402Z,3.5
2018-01-18T09:54:48.178Z,5.8
2018-01-18T09:55:50.195Z,3.1
2018-01-18T09:56:51.854Z,6.8
2018-01-18T09:57:54.095Z,3.5
2018-01-18T09:58:55.800Z,6.5
2018-01-18T09:59:57.506Z,5.3
2018-01-18T10:01:09.695Z,7.2
2018-01-18T10:02:21.945Z,7.2
2018-01-18T10:03:26.206Z,6.8
2018-01-18T10:04:36.954Z,5.4
2018-01-18T10:05:41.597Z,7.4
2018-01-18T10:06:43.304Z,9.4
2018-01-18T10:07:55.563Z,5.5
2018-01-18T10:08:59.490Z,5.0
2018-01-18T10:10:06.558Z,6.7
2018-01-18T10:11:10.026Z,7.2
2018-01-18T10:12:17.831Z,6.3
2018-01-18T10:13:20.950Z,7.3
2018-01-18T10:14:27.070Z,7.6
2018-01-18T11:01:43.894Z,23.1
2018-01-18T11:02:45.543Z,15.4
2018-01-18T11:03:47.219Z,11.7
2018-01-18T11:04:48.951Z,16.5
2018-01-18T11:05:50.610Z,16.3
2018-01-18T11:06:52.268Z,17.0
2018-01-18T11:07:54.002Z,13.0
2018-01-18T11:08:55.540Z,21.6
2018-01-18T11:09:57.251Z,15.9
2018-01-18T11:10:58.914Z,15.3
2018-01-18T11:12:00.566Z,19.4
2018-01-18T11:13:02.258Z,16.9
2018-01-18T11:14:03.884Z,16.2
2018-01-18T11:15:05.595Z,6.3
2018-01-18T11:16:07.243Z,13.7
2018-01-18T11:17:08.955Z,19.1
2018-01-18T11:18:12.882Z,16.2
2018-01-18T11:19:14.528Z,11.0
2018-01-18T11:20:16.194Z,18.5
2018-01-18T11:21:17.919Z,10.8
2018-01-18T11:22:19.588Z,7.8
2018-01-18T11:23:21.249Z,12.4
2018-01-18T11:24:22.905Z,7.7
2018-01-18T11:25:24.573Z,12.1
2018-01-18T11:26:26.245Z,8.0
2018-01-18T11:27:27.931Z,8.9
2018-01-18T11:28:29.581Z,8.1
2018-01-18T11:29:31.251Z,7.1
2018-01-18T11:30:32.918Z,6.8
2018-01-18T11:31:34.569Z,11.1
2018-01-18T11:32:36.222Z,9.0
2018-01-18T11:33:38.016Z,7.0
2018-01-18T11:34:39.672Z,5.4
2018-01-18T11:35:41.334Z,8.5
2018-01-18T11:36:42.995Z,9.5
2018-01-18T11:37:44.649Z,7.5
2018-01-18T11:38:46.708Z,9.5
2018-01-18T11:39:48.337Z,9.7
2018-01-18T11:40:50.000Z,6.5
2018-01-18T11:41:51.652Z,13.6
2018-01-18T11:42:53.309Z,7.7
2018-01-18T11:43:54.964Z,7.8
2018-01-18T11:44:56.672Z,12.7
2018-01-18T11:45:58.285Z,13.0
2018-01-18T11:46:59.938Z,11.0
2018-01-18T11:48:01.599Z,9.7
2018-01-18T11:49:03.269Z,10.3
2018-01-18T11:50:04.979Z,8.5
2018-01-18T11:51:06.644Z,9.9
2018-01-18T11:52:08.298Z,6.3
2018-01-18T11:53:09.963Z,11.3
2018-01-18T11:54:11.625Z,8.6
2018-01-18T11:55:13.287Z,7.6
2018-01-18T11:56:14.931Z,8.5
2018-01-18T11:57:16.591Z,5.9
2018-01-18T11:58:18.239Z,8.0
2018-01-18T11:59:19.907Z,5.0
2018-01-18T12:00:21.597Z,7.7
2018-01-18T12:01:23.377Z,7.0
2018-01-18T12:02:25.047Z,6.8
2018-01-18T12:03:26.702Z,6.3
2018-01-18T12:04:30.189Z,17.4
2018-01-18T12:05:31.900Z,4.8
2018-01-18T12:06:33.564Z,8.3
2018-01-18T12:07:35.314Z,8.5
2018-01-18T12:08:36.961Z,5.0
2018-01-18T12:09:38.618Z,10.3
2018-01-18T12:10:40.322Z,7.8
2018-01-18T12:11:41.976Z,4.7
2018-01-18T12:12:43.650Z,4.5
2018-01-18T12:13:45.305Z,5.6
2018-01-18T12:14:46.968Z,4.7
2018-01-18T12:15:49.041Z,6.1
2018-01-18T12:16:50.699Z,5.9
2018-01-18T12:17:52.427Z,4.7
2018-01-18T12:18:54.095Z,6.4
2018-01-18T12:19:55.754Z,9.0
2018-01-18T12:20:57.416Z,7.8
2018-01-18T12:21:59.074Z,6.3
2018-01-18T12:23:00.734Z,6.5
2018-01-18T12:24:02.394Z,8.7
2018-01-18T12:25:04.069Z,4.2
2018-01-18T12:26:06.159Z,5.5
2018-01-18T12:27:07.888Z,4.4
2018-01-18T12:28:09.548Z,5.4
2018-01-18T12:29:11.210Z,5.9
2018-01-18T12:30:12.868Z,3.4
2018-01-18T12:31:14.527Z,7.2
2018-01-18T12:32:16.189Z,3.7
2018-01-18T12:33:17.888Z,6.0
2018-01-18T12:34:19.574Z,6.5
2018-01-18T12:35:21.232Z,5.9
2018-01-18T12:36:22.888Z,4.1
2018-01-18T12:37:24.547Z,3.8
2018-01-18T12:38:26.189Z,7.0
2018-01-18T12:39:27.849Z,7.6
2018-01-18T12:40:29.521Z,4.4
2018-01-18T12:41:31.376Z,5.6
2018-01-18T12:42:33.031Z,3.8
2018-01-18T12:43:34.716Z,3.3
2018-01-18T12:44:36.370Z,5.6
2018-01-18T12:45:38.032Z,5.6
2018-01-18T12:46:39.696Z,3.9
2018-01-18T12:47:41.368Z,6.7
2018-01-18T12:48:43.020Z,5.5
2018-01-18T12:49:44.677Z,5.1
2018-01-18T12:50:46.326Z,5.9
2018-01-18T12:51:47.979Z,5.3
2018-01-18T12:52:49.629Z,6.5
2018-01-18T12:53:51.289Z,5.6
2018-01-18T12:54:52.944Z,7.1
2018-01-18T12:55:54.605Z,6.9
2018-01-18T12:56:56.309Z,4.7
2018-01-18T12:57:57.957Z,7.4
2018-01-18T12:58:59.614Z,5.6
2018-01-18T13:00:01.294Z,5.0
2018-01-18T13:01:02.930Z,5.1
2018-01-18T13:02:04.578Z,5.0
2018-01-18T13:03:06.239Z,6.4
2018-01-18T13:04:07.903Z,5.0
2018-01-18T13:05:09.559Z,6.6
2018-01-18T13:06:11.214Z,5.4
2018-01-18T13:07:12.868Z,3.7
2018-01-18T13:08:14.538Z,4.5
2018-01-18T13:09:16.198Z,4.6
2018-01-18T13:10:17.855Z,6.5
2018-01-18T13:11:19.507Z,3.8
2018-01-18T13:12:21.155Z,5.2
2018-01-18T13:13:22.818Z,5.2
2018-01-18T13:14:24.559Z,12.4
2018-01-18T13:15:26.214Z,2.8
2018-01-18T13:16:27.870Z,5.7
2018-01-18T13:17:29.521Z,6.6
2018-01-18T13:18:31.211Z,5.9
2018-01-18T13:19:32.858Z,7.1
2018-01-18T13:20:34.513Z,6.9
2018-01-18T13:21:36.162Z,5.1
2018-01-18T13:22:37.823Z,6.5
2018-01-18T13:23:39.473Z,5.9
2018-01-18T13:24:41.170Z,5.2
2018-01-18T13:25:42.826Z,6.6
2018-01-18T13:26:44.492Z,4.7
2018-01-18T13:27:46.137Z,7.5
2018-01-18T13:28:47.791Z,5.3
2018-01-18T13:29:49.458Z,5.9
2018-01-18T13:30:51.096Z,5.1
2018-01-18T13:31:52.762Z,4.4
2018-01-18T13:32:54.426Z,4.0
2018-01-18T13:33:56.087Z,4.0
2018-01-18T13:34:57.741Z,2.6
2018-01-18T13:35:59.409Z,4.6
2018-01-18T13:37:01.074Z,2.0
2018-01-18T13:38:02.736Z,3.1
2018-01-18T13:39:04.380Z,2.6
2018-01-18T13:40:06.041Z,4.3
2018-01-18T13:41:07.711Z,4.4
2018-01-18T13:42:09.350Z,3.8
2018-01-18T13:43:11.010Z,5.7
2018-01-18T13:44:12.662Z,2.8
2018-01-18T13:45:14.320Z,2.8
2018-01-18T13:46:15.976Z,4.5
2018-01-18T13:47:17.636Z,6.3
2018-01-18T13:48:19.285Z,6.1
2018-01-18T13:49:20.935Z,4.1
2018-01-18T13:50:22.584Z,4.8
2018-01-18T13:51:24.237Z,3.2
2018-01-18T13:52:25.893Z,4.1
2018-01-18T13:53:27.555Z,2.7
2018-01-18T13:54:29.207Z,4.2
2018-01-18T13:55:30.855Z,5.0
2018-01-18T13:56:32.524Z,3.6
2018-01-18T13:57:34.178Z,4.6
2018-01-18T13:58:35.866Z,4.2
2018-01-18T13:59:37.515Z,6.1
2018-01-18T14:00:39.177Z,4.6
2018-01-18T14:01:40.823Z,5.6
2018-01-18T14:02:42.477Z,4.7
2018-01-18T14:03:44.124Z,3.9
2018-01-18T14:04:46.074Z,3.4
2018-01-18T14:05:47.739Z,5.7
2018-01-18T14:06:49.394Z,5.0
2018-01-18T14:07:51.524Z,5.1
2018-01-18T14:08:53.190Z,4.3
2018-01-18T14:09:54.864Z,4.1
2018-01-18T14:10:56.652Z,5.3
2018-01-18T14:11:58.304Z,5.1
2018-01-18T14:13:00.371Z,5.1
2018-01-18T14:14:02.027Z,4.7
2018-01-18T14:15:03.956Z,6.7
2018-01-18T14:16:05.615Z,2.8
2018-01-18T14:17:07.277Z,3.0
2018-01-18T14:18:09.348Z,5.7
2018-01-18T14:19:10.992Z,4.9
2018-01-18T14:20:12.993Z,7.1
2018-01-18T14:21:14.891Z,3.4
2018-01-18T14:22:16.808Z,6.8
2018-01-18T14:23:18.399Z,4.4
2018-01-18T14:24:21.913Z,4.9
2018-01-18T14:25:23.583Z,4.5
2018-01-18T14:26:25.713Z,6.9
2018-01-18T14:27:27.377Z,2.3
2018-01-18T14:28:29.249Z,3.3
2018-01-18T14:29:30.862Z,3.1
2018-01-18T14:30:32.511Z,5.6
2018-01-18T14:31:34.160Z,3.7
2018-01-18T14:32:35.817Z,4.4
2018-01-18T14:33:37.472Z,7.1
2018-01-18T14:34:39.126Z,3.6
2018-01-18T14:35:40.784Z,3.9
2018-01-18T14:36:42.956Z,4.1
2018-01-18T14:37:44.609Z,4.7
2018-01-18T14:38:46.264Z,3.2
2018-01-18T14:39:47.914Z,5.4
2018-01-18T14:40:49.566Z,2.9
2018-01-18T14:41:51.224Z,3.0
2018-01-18T14:42:52.880Z,2.4
2018-01-18T14:43:59.476Z,2.4
2018-01-18T14:45:04.370Z,2.9
2018-01-18T14:46:06.100Z,3.4
2018-01-18T14:47:07.777Z,6.9
2018-01-18T14:48:09.430Z,2.9
2018-01-18T14:49:11.119Z,2.9
2018-01-18T14:50:12.777Z,5.1
2018-01-18T14:51:14.427Z,4.8
2018-01-18T14:52:17.274Z,3.2
2018-01-18T14:53:21.620Z,4.2
2018-01-18T14:54:23.331Z,3.4
2018-01-18T14:55:25.296Z,2.3
2018-01-18T15:01:18.691Z,12.3
2018-01-18T15:02:21.100Z,11.1